sensor_id;sensor_type;location;lat;lon;timestamp;P1;durP1;ratioP1;P2;durP2;ratioP2
34359;SDS011;20624;55.870;26.506;2022-08-30T00:01:21;2.08;;;0.52;;
34359;SDS011;20624;55.870;26.506;2022-08-30T00:03:53;0.13;;;0.10;;
34359;SDS011;20624;55.870;26.506;2022-08-30T00:06:22;1.25;;;0.85;;
34359;SDS011;20624;55.870;26.506;2022-08-30T00:08:50;2.70;;;1.50;;
34359;SDS011;20624;55.870;26.506;2022-08-30T00:11:19;0.57;;;0.30;;
34359;SDS011;20624;55.870;26.506;2022-08-30T00:13:49;0.00;;;0.00;;
34359;SDS011;20624;55.870;26.506;2022-08-30T00:16:19;2.08;;;0.73;;
34359;SDS011;20624;55.870;26.506;2022-08-30T00:18:48;2.15;;;0.65;;
34359;SDS011;20624;55.870;26.506;2022-08-30T00:21:17;0.60;;;0.20;;
34359;SDS011;20624;55.870;26.506;2022-08-30T00:23:44;0.35;;;0.08;;
34359;SDS011;20624;55.870;26.506;2022-08-30T00:26:12;2.40;;;0.85;;
34359;SDS011;20624;55.870;26.506;2022-08-30T00:28:40;0.75;;;0.50;;
34359;SDS011;20624;55.870;26.506;2022-08-30T00:31:07;0.03;;;0.03;;
34359;SDS011;20624;55.870;26.506;2022-08-30T00:33:40;1.73;;;0.80;;
34359;SDS011;20624;55.870;26.506;2022-08-30T00:36:08;3.42;;;0.55;;
34359;SDS011;20624;55.870;26.506;2022-08-30T00:38:36;1.17;;;0.90;;
34359;SDS011;20624;55.870;26.506;2022-08-30T00:41:04;1.48;;;0.70;;
34359;SDS011;20624;55.870;26.506;2022-08-30T00:43:32;4.75;;;0.80;;
34359;SDS011;20624;55.870;26.506;2022-08-30T00:46:02;0.60;;;0.35;;
34359;SDS011;20624;55.870;26.506;2022-08-30T00:48:33;0.82;;;0.57;;
34359;SDS011;20624;55.870;26.506;2022-08-30T00:51:06;3.50;;;1.77;;
34359;SDS011;20624;55.870;26.506;2022-08-30T00:53:36;2.63;;;1.67;;
34359;SDS011;20624;55.870;26.506;2022-08-30T00:56:07;3.40;;;1.48;;
34359;SDS011;20624;55.870;26.506;2022-08-30T00:58:37;3.17;;;1.42;;
34359;SDS011;20624;55.870;26.506;2022-08-30T01:01:06;0.77;;;0.15;;
34359;SDS011;20624;55.870;26.506;2022-08-30T01:03:34;4.60;;;2.08;;
34359;SDS011;20624;55.870;26.506;2022-08-30T01:06:03;3.50;;;1.52;;
34359;SDS011;20624;55.870;26.506;2022-08-30T01:08:33;2.88;;;1.60;;
34359;SDS011;20624;55.870;26.506;2022-08-30T01:11:00;4.95;;;1.65;;
34359;SDS011;20624;55.870;26.506;2022-08-30T01:13:29;3.20;;;1.65;;
34359;SDS011;20624;55.870;26.506;2022-08-30T01:15:58;4.47;;;1.70;;
34359;SDS011;20624;55.870;26.506;2022-08-30T01:18:27;3.83;;;1.63;;
34359;SDS011;20624;55.870;26.506;2022-08-30T01:23:50;5.63;;;1.70;;
34359;SDS011;20624;55.870;26.506;2022-08-30T01:26:23;3.03;;;1.50;;
34359;SDS011;20624;55.870;26.506;2022-08-30T01:28:56;2.70;;;1.73;;
34359;SDS011;20624;55.870;26.506;2022-08-30T01:31:27;3.80;;;2.08;;
34359;SDS011;20624;55.870;26.506;2022-08-30T01:33:55;2.83;;;1.85;;
34359;SDS011;20624;55.870;26.506;2022-08-30T01:36:23;4.05;;;1.70;;
34359;SDS011;20624;55.870;26.506;2022-08-30T01:38:51;4.70;;;1.83;;
34359;SDS011;20624;55.870;26.506;2022-08-30T01:41:31;4.95;;;2.08;;
34359;SDS011;20624;55.870;26.506;2022-08-30T01:44:02;2.53;;;1.65;;
34359;SDS011;20624;55.870;26.506;2022-08-30T01:46:34;4.97;;;2.17;;
34359;SDS011;20624;55.870;26.506;2022-08-30T01:49:08;2.47;;;1.40;;
34359;SDS011;20624;55.870;26.506;2022-08-30T01:51:37;2.38;;;1.27;;
34359;SDS011;20624;55.870;26.506;2022-08-30T01:54:06;6.68;;;2.30;;
34359;SDS011;20624;55.870;26.506;2022-08-30T01:56:35;4.07;;;1.77;;
34359;SDS011;20624;55.870;26.506;2022-08-30T01:59:03;5.50;;;1.42;;
34359;SDS011;20624;55.870;26.506;2022-08-30T02:01:32;4.38;;;1.50;;
34359;SDS011;20624;55.870;26.506;2022-08-30T02:04:02;4.05;;;1.63;;
34359;SDS011;20624;55.870;26.506;2022-08-30T02:06:30;3.35;;;1.73;;
34359;SDS011;20624;55.870;26.506;2022-08-30T02:08:58;3.88;;;1.73;;
34359;SDS011;20624;55.870;26.506;2022-08-30T02:11:26;2.97;;;1.55;;
34359;SDS011;20624;55.870;26.506;2022-08-30T02:13:53;3.92;;;1.55;;
34359;SDS011;20624;55.870;26.506;2022-08-30T02:16:21;4.93;;;2.10;;
34359;SDS011;20624;55.870;26.506;2022-08-30T02:18:51;3.58;;;1.95;;
34359;SDS011;20624;55.870;26.506;2022-08-30T02:21:20;1.92;;;1.25;;
34359;SDS011;20624;55.870;26.506;2022-08-30T02:23:48;2.80;;;1.17;;
34359;SDS011;20624;55.870;26.506;2022-08-30T02:26:16;1.98;;;0.75;;
34359;SDS011;20624;55.870;26.506;2022-08-30T02:28:46;1.45;;;0.55;;
34359;SDS011;20624;55.870;26.506;2022-08-30T02:31:16;5.10;;;1.88;;
34359;SDS011;20624;55.870;26.506;2022-08-30T02:33:46;3.25;;;2.00;;
34359;SDS011;20624;55.870;26.506;2022-08-30T02:36:15;4.53;;;1.33;;
34359;SDS011;20624;55.870;26.506;2022-08-30T02:38:43;6.28;;;2.10;;
34359;SDS011;20624;55.870;26.506;2022-08-30T02:41:11;2.80;;;1.63;;
34359;SDS011;20624;55.870;26.506;2022-08-30T02:43:39;2.30;;;1.48;;
34359;SDS011;20624;55.870;26.506;2022-08-30T02:46:07;4.40;;;1.92;;
34359;SDS011;20624;55.870;26.506;2022-08-30T02:48:34;3.33;;;1.55;;
34359;SDS011;20624;55.870;26.506;2022-08-30T02:51:03;3.83;;;2.00;;
34359;SDS011;20624;55.870;26.506;2022-08-30T02:53:36;3.58;;;1.85;;
34359;SDS011;20624;55.870;26.506;2022-08-30T02:56:05;2.67;;;1.75;;
34359;SDS011;20624;55.870;26.506;2022-08-30T02:58:33;3.60;;;1.58;;
34359;SDS011;20624;55.870;26.506;2022-08-30T03:01:02;3.53;;;1.67;;
34359;SDS011;20624;55.870;26.506;2022-08-30T03:03:31;3.42;;;1.80;;
34359;SDS011;20624;55.870;26.506;2022-08-30T03:05:59;3.75;;;1.92;;
34359;SDS011;20624;55.870;26.506;2022-08-30T03:08:29;4.35;;;1.45;;
34359;SDS011;20624;55.870;26.506;2022-08-30T03:10:57;2.45;;;1.52;;
34359;SDS011;20624;55.870;26.506;2022-08-30T03:13:25;5.32;;;2.00;;
34359;SDS011;20624;55.870;26.506;2022-08-30T03:15:53;4.03;;;2.40;;
34359;SDS011;20624;55.870;26.506;2022-08-30T03:18:21;4.35;;;2.40;;
34359;SDS011;20624;55.870;26.506;2022-08-30T03:20:49;3.78;;;2.03;;
34359;SDS011;20624;55.870;26.506;2022-08-30T03:23:20;3.47;;;2.00;;
34359;SDS011;20624;55.870;26.506;2022-08-30T03:25:48;3.90;;;2.00;;
34359;SDS011;20624;55.870;26.506;2022-08-30T03:28:16;3.53;;;1.95;;
34359;SDS011;20624;55.870;26.506;2022-08-30T03:30:43;5.55;;;2.13;;
34359;SDS011;20624;55.870;26.506;2022-08-30T03:33:11;4.47;;;2.28;;
34359;SDS011;20624;55.870;26.506;2022-08-30T03:35:38;4.32;;;2.10;;
34359;SDS011;20624;55.870;26.506;2022-08-30T03:38:06;7.35;;;2.08;;
34359;SDS011;20624;55.870;26.506;2022-08-30T03:40:33;5.65;;;2.35;;
34359;SDS011;20624;55.870;26.506;2022-08-30T03:43:01;5.57;;;2.15;;
34359;SDS011;20624;55.870;26.506;2022-08-30T03:45:30;5.90;;;2.40;;
34359;SDS011;20624;55.870;26.506;2022-08-30T03:47:58;6.03;;;2.50;;
34359;SDS011;20624;55.870;26.506;2022-08-30T03:50:28;4.15;;;2.20;;
34359;SDS011;20624;55.870;26.506;2022-08-30T03:52:56;4.97;;;1.90;;
34359;SDS011;20624;55.870;26.506;2022-08-30T03:55:27;6.28;;;2.25;;
34359;SDS011;20624;55.870;26.506;2022-08-30T03:57:55;4.88;;;2.28;;
34359;SDS011;20624;55.870;26.506;2022-08-30T04:00:23;5.85;;;2.78;;
34359;SDS011;20624;55.870;26.506;2022-08-30T04:02:51;4.75;;;2.53;;
34359;SDS011;20624;55.870;26.506;2022-08-30T04:05:19;4.20;;;2.28;;
34359;SDS011;20624;55.870;26.506;2022-08-30T04:07:46;3.10;;;2.00;;
34359;SDS011;20624;55.870;26.506;2022-08-30T04:10:14;4.95;;;2.03;;
34359;SDS011;20624;55.870;26.506;2022-08-30T04:12:42;3.00;;;1.90;;
34359;SDS011;20624;55.870;26.506;2022-08-30T04:15:15;3.70;;;1.88;;
34359;SDS011;20624;55.870;26.506;2022-08-30T04:17:43;5.15;;;2.65;;
34359;SDS011;20624;55.870;26.506;2022-08-30T04:20:11;3.95;;;2.13;;
34359;SDS011;20624;55.870;26.506;2022-08-30T04:22:38;6.18;;;2.45;;
34359;SDS011;20624;55.870;26.506;2022-08-30T04:25:06;6.07;;;2.03;;
34359;SDS011;20624;55.870;26.506;2022-08-30T04:27:41;3.75;;;2.00;;
34359;SDS011;20624;55.870;26.506;2022-08-30T04:30:12;6.07;;;1.90;;
34359;SDS011;20624;55.870;26.506;2022-08-30T04:32:41;4.45;;;1.67;;
34359;SDS011;20624;55.870;26.506;2022-08-30T04:35:10;3.22;;;1.83;;
34359;SDS011;20624;55.870;26.506;2022-08-30T04:37:38;2.22;;;1.35;;
34359;SDS011;20624;55.870;26.506;2022-08-30T04:40:06;4.70;;;1.88;;
34359;SDS011;20624;55.870;26.506;2022-08-30T04:42:34;2.97;;;1.70;;
34359;SDS011;20624;55.870;26.506;2022-08-30T04:45:03;3.92;;;1.90;;
34359;SDS011;20624;55.870;26.506;2022-08-30T04:47:33;5.63;;;2.05;;
34359;SDS011;20624;55.870;26.506;2022-08-30T04:50:00;4.60;;;1.95;;
34359;SDS011;20624;55.870;26.506;2022-08-30T04:52:29;7.72;;;2.05;;
34359;SDS011;20624;55.870;26.506;2022-08-30T04:54:57;2.95;;;1.77;;
34359;SDS011;20624;55.870;26.506;2022-08-30T04:57:25;3.78;;;2.00;;
34359;SDS011;20624;55.870;26.506;2022-08-30T04:59:53;2.92;;;1.90;;
34359;SDS011;20624;55.870;26.506;2022-08-30T05:02:22;6.25;;;2.15;;
34359;SDS011;20624;55.870;26.506;2022-08-30T05:04:49;11.88;;;4.13;;
34359;SDS011;20624;55.870;26.506;2022-08-30T05:07:39;11.52;;;4.15;;
34359;SDS011;20624;55.870;26.506;2022-08-30T05:10:07;9.18;;;3.55;;
34359;SDS011;20624;55.870;26.506;2022-08-30T05:12:37;9.80;;;4.30;;
34359;SDS011;20624;55.870;26.506;2022-08-30T05:15:05;3.10;;;1.83;;
34359;SDS011;20624;55.870;26.506;2022-08-30T05:17:32;6.65;;;1.80;;
34359;SDS011;20624;55.870;26.506;2022-08-30T05:20:02;3.22;;;1.92;;
34359;SDS011;20624;55.870;26.506;2022-08-30T05:22:29;3.15;;;1.60;;
34359;SDS011;20624;55.870;26.506;2022-08-30T05:24:57;4.63;;;2.00;;
34359;SDS011;20624;55.870;26.506;2022-08-30T05:27:28;3.25;;;1.70;;
34359;SDS011;20624;55.870;26.506;2022-08-30T05:29:55;2.63;;;1.50;;
34359;SDS011;20624;55.870;26.506;2022-08-30T05:32:23;3.97;;;1.58;;
34359;SDS011;20624;55.870;26.506;2022-08-30T05:34:50;2.47;;;1.48;;
34359;SDS011;20624;55.870;26.506;2022-08-30T05:37:18;1.60;;;0.75;;
34359;SDS011;20624;55.870;26.506;2022-08-30T05:39:46;2.63;;;0.70;;
34359;SDS011;20624;55.870;26.506;2022-08-30T05:42:16;3.92;;;0.75;;
34359;SDS011;20624;55.870;26.506;2022-08-30T05:44:44;0.47;;;0.10;;
34359;SDS011;20624;55.870;26.506;2022-08-30T05:47:13;0.55;;;0.10;;
34359;SDS011;20624;55.870;26.506;2022-08-30T05:49:40;0.47;;;0.15;;
34359;SDS011;20624;55.870;26.506;2022-08-30T05:52:08;0.90;;;0.22;;
34359;SDS011;20624;55.870;26.506;2022-08-30T05:54:38;0.75;;;0.20;;
34359;SDS011;20624;55.870;26.506;2022-08-30T05:57:06;0.95;;;0.35;;
34359;SDS011;20624;55.870;26.506;2022-08-30T05:59:34;0.52;;;0.32;;
34359;SDS011;20624;55.870;26.506;2022-08-30T06:02:03;0.85;;;0.43;;
34359;SDS011;20624;55.870;26.506;2022-08-30T06:04:30;2.00;;;0.60;;
34359;SDS011;20624;55.870;26.506;2022-08-30T06:06:58;0.57;;;0.38;;
34359;SDS011;20624;55.870;26.506;2022-08-30T06:09:26;1.23;;;0.77;;
34359;SDS011;20624;55.870;26.506;2022-08-30T06:11:53;0.68;;;0.45;;
34359;SDS011;20624;55.870;26.506;2022-08-30T06:14:21;0.57;;;0.40;;
34359;SDS011;20624;55.870;26.506;2022-08-30T06:16:49;0.73;;;0.55;;
34359;SDS011;20624;55.870;26.506;2022-08-30T06:19:17;2.50;;;0.47;;
34359;SDS011;20624;55.870;26.506;2022-08-30T06:21:46;0.13;;;0.03;;
34359;SDS011;20624;55.870;26.506;2022-08-30T06:24:16;1.02;;;0.30;;
34359;SDS011;20624;55.870;26.506;2022-08-30T06:26:50;0.75;;;0.52;;
34359;SDS011;20624;55.870;26.506;2022-08-30T06:29:18;2.38;;;0.93;;
34359;SDS011;20624;55.870;26.506;2022-08-30T06:31:47;0.45;;;0.30;;
34359;SDS011;20624;55.870;26.506;2022-08-30T06:34:15;0.10;;;0.10;;
34359;SDS011;20624;55.870;26.506;2022-08-30T06:36:43;0.43;;;0.30;;
34359;SDS011;20624;55.870;26.506;2022-08-30T06:39:11;0.52;;;0.38;;
34359;SDS011;20624;55.870;26.506;2022-08-30T06:41:39;0.25;;;0.22;;
34359;SDS011;20624;55.870;26.506;2022-08-30T06:44:08;0.35;;;0.20;;
34359;SDS011;20624;55.870;26.506;2022-08-30T06:46:36;0.50;;;0.28;;
34359;SDS011;20624;55.870;26.506;2022-08-30T06:49:04;0.45;;;0.20;;
34359;SDS011;20624;55.870;26.506;2022-08-30T06:51:34;0.30;;;0.28;;
34359;SDS011;20624;55.870;26.506;2022-08-30T06:54:05;1.35;;;0.52;;
34359;SDS011;20624;55.870;26.506;2022-08-30T06:56:36;0.57;;;0.20;;
34359;SDS011;20624;55.870;26.506;2022-08-30T06:59:07;0.28;;;0.17;;
34359;SDS011;20624;55.870;26.506;2022-08-30T07:01:37;0.75;;;0.50;;
34359;SDS011;20624;55.870;26.506;2022-08-30T07:04:05;1.02;;;0.60;;
34359;SDS011;20624;55.870;26.506;2022-08-30T07:06:32;0.63;;;0.30;;
34359;SDS011;20624;55.870;26.506;2022-08-30T07:09:00;0.38;;;0.25;;
34359;SDS011;20624;55.870;26.506;2022-08-30T07:11:30;0.38;;;0.28;;
34359;SDS011;20624;55.870;26.506;2022-08-30T07:14:00;1.10;;;0.55;;
34359;SDS011;20624;55.870;26.506;2022-08-30T07:16:28;3.63;;;0.50;;
34359;SDS011;20624;55.870;26.506;2022-08-30T07:18:56;1.65;;;0.77;;
34359;SDS011;20624;55.870;26.506;2022-08-30T07:21:35;1.98;;;0.65;;
34359;SDS011;20624;55.870;26.506;2022-08-30T07:24:05;1.40;;;0.70;;
34359;SDS011;20624;55.870;26.506;2022-08-30T07:26:36;0.40;;;0.20;;
34359;SDS011;20624;55.870;26.506;2022-08-30T07:29:14;3.40;;;1.95;;
34359;SDS011;20624;55.870;26.506;2022-08-30T07:31:43;0.00;;;0.00;;
34359;SDS011;20624;55.870;26.506;2022-08-30T07:34:10;2.20;;;1.02;;
34359;SDS011;20624;55.870;26.506;2022-08-30T07:36:38;3.78;;;1.45;;
34359;SDS011;20624;55.870;26.506;2022-08-30T07:39:06;7.85;;;1.55;;
34359;SDS011;20624;55.870;26.506;2022-08-30T07:41:35;4.22;;;1.38;;
34359;SDS011;20624;55.870;26.506;2022-08-30T07:44:05;2.85;;;0.90;;
34359;SDS011;20624;55.870;26.506;2022-08-30T07:46:33;1.05;;;0.32;;
34359;SDS011;20624;55.870;26.506;2022-08-30T07:49:03;2.13;;;0.93;;
34359;SDS011;20624;55.870;26.506;2022-08-30T07:51:36;2.10;;;0.93;;
34359;SDS011;20624;55.870;26.506;2022-08-30T07:54:05;0.20;;;0.10;;
34359;SDS011;20624;55.870;26.506;2022-08-30T07:56:33;0.98;;;0.60;;
34359;SDS011;20624;55.870;26.506;2022-08-30T07:59:01;0.77;;;0.40;;
34359;SDS011;20624;55.870;26.506;2022-08-30T08:01:30;0.60;;;0.32;;
34359;SDS011;20624;55.870;26.506;2022-08-30T08:03:57;0.43;;;0.30;;
34359;SDS011;20624;55.870;26.506;2022-08-30T08:06:25;1.05;;;0.25;;
34359;SDS011;20624;55.870;26.506;2022-08-30T08:09:00;0.03;;;0.00;;
34359;SDS011;20624;55.870;26.506;2022-08-30T08:11:28;0.30;;;0.10;;
34359;SDS011;20624;55.870;26.506;2022-08-30T08:13:59;0.43;;;0.20;;
34359;SDS011;20624;55.870;26.506;2022-08-30T08:16:27;0.55;;;0.22;;
34359;SDS011;20624;55.870;26.506;2022-08-30T08:18:55;0.82;;;0.43;;
34359;SDS011;20624;55.870;26.506;2022-08-30T08:21:24;0.77;;;0.35;;
34359;SDS011;20624;55.870;26.506;2022-08-30T08:23:52;0.55;;;0.30;;
34359;SDS011;20624;55.870;26.506;2022-08-30T08:26:22;0.15;;;0.15;;
34359;SDS011;20624;55.870;26.506;2022-08-30T08:28:50;0.10;;;0.08;;
34359;SDS011;20624;55.870;26.506;2022-08-30T08:31:22;0.40;;;0.20;;
34359;SDS011;20624;55.870;26.506;2022-08-30T08:33:58;0.50;;;0.30;;
34359;SDS011;20624;55.870;26.506;2022-08-30T08:36:28;1.25;;;0.70;;
34359;SDS011;20624;55.870;26.506;2022-08-30T08:38:56;1.10;;;0.57;;
34359;SDS011;20624;55.870;26.506;2022-08-30T08:44:22;0.50;;;0.30;;
34359;SDS011;20624;55.870;26.506;2022-08-30T08:49:46;0.73;;;0.40;;
34359;SDS011;20624;55.870;26.506;2022-08-30T08:52:20;0.20;;;0.20;;
34359;SDS011;20624;55.870;26.506;2022-08-30T08:55:14;0.47;;;0.28;;
34359;SDS011;20624;55.870;26.506;2022-08-30T08:57:46;0.55;;;0.30;;
34359;SDS011;20624;55.870;26.506;2022-08-30T09:00:14;2.25;;;1.08;;
34359;SDS011;20624;55.870;26.506;2022-08-30T09:02:43;0.95;;;0.40;;
34359;SDS011;20624;55.870;26.506;2022-08-30T09:05:14;0.52;;;0.25;;
34359;SDS011;20624;55.870;26.506;2022-08-30T09:07:48;1.50;;;0.85;;
34359;SDS011;20624;55.870;26.506;2022-08-30T09:10:23;1.45;;;0.65;;
34359;SDS011;20624;55.870;26.506;2022-08-30T09:13:11;0.63;;;0.28;;
34359;SDS011;20624;55.870;26.506;2022-08-30T09:15:40;1.10;;;0.60;;
34359;SDS011;20624;55.870;26.506;2022-08-30T09:18:09;1.80;;;0.73;;
34359;SDS011;20624;55.870;26.506;2022-08-30T09:20:48;2.15;;;0.63;;
34359;SDS011;20624;55.870;26.506;2022-08-30T09:23:22;1.83;;;0.50;;
34359;SDS011;20624;55.870;26.506;2022-08-30T09:25:58;0.45;;;0.30;;
34359;SDS011;20624;55.870;26.506;2022-08-30T09:28:29;0.55;;;0.25;;
34359;SDS011;20624;55.870;26.506;2022-08-30T09:31:59;0.73;;;0.28;;
34359;SDS011;20624;55.870;26.506;2022-08-30T09:34:07;0.50;;;0.20;;
34359;SDS011;20624;55.870;26.506;2022-08-30T09:36:42;0.52;;;0.30;;
34359;SDS011;20624;55.870;26.506;2022-08-30T09:39:18;0.47;;;0.35;;
34359;SDS011;20624;55.870;26.506;2022-08-30T09:44:22;2.35;;;0.57;;
34359;SDS011;20624;55.870;26.506;2022-08-30T09:46:58;0.77;;;0.40;;
34359;SDS011;20624;55.870;26.506;2022-08-30T09:52:23;0.15;;;0.10;;
34359;SDS011;20624;55.870;26.506;2022-08-30T10:00:18;0.77;;;0.40;;
34359;SDS011;20624;55.870;26.506;2022-08-30T10:03:02;0.45;;;0.22;;
34359;SDS011;20624;55.870;26.506;2022-08-30T10:11:23;0.30;;;0.10;;
34359;SDS011;20624;55.870;26.506;2022-08-30T10:19:42;0.90;;;0.50;;
34359;SDS011;20624;55.870;26.506;2022-08-30T10:22:24;3.03;;;0.40;;
34359;SDS011;20624;55.870;26.506;2022-08-30T10:25:14;1.25;;;0.43;;
34359;SDS011;20624;55.870;26.506;2022-08-30T10:27:51;0.20;;;0.15;;
34359;SDS011;20624;55.870;26.506;2022-08-30T10:30:24;0.45;;;0.32;;
34359;SDS011;20624;55.870;26.506;2022-08-30T10:35:25;0.38;;;0.25;;
34359;SDS011;20624;55.870;26.506;2022-08-30T10:43:48;0.85;;;0.50;;
34359;SDS011;20624;55.870;26.506;2022-08-30T10:48:55;0.52;;;0.22;;
34359;SDS011;20624;55.870;26.506;2022-08-30T10:51:30;1.33;;;0.77;;
34359;SDS011;20624;55.870;26.506;2022-08-30T10:56:44;2.85;;;0.70;;
34359;SDS011;20624;55.870;26.506;2022-08-30T10:59:15;1.42;;;0.60;;
34359;SDS011;20624;55.870;26.506;2022-08-30T11:01:57;2.53;;;1.02;;
34359;SDS011;20624;55.870;26.506;2022-08-30T11:11:21;0.35;;;0.30;;
34359;SDS011;20624;55.870;26.506;2022-08-30T11:14:09;1.10;;;0.80;;
34359;SDS011;20624;55.870;26.506;2022-08-30T11:16:41;1.42;;;0.88;;
34359;SDS011;20624;55.870;26.506;2022-08-30T11:19:56;0.93;;;0.50;;
34359;SDS011;20624;55.870;26.506;2022-08-30T11:22:10;1.08;;;0.60;;
34359;SDS011;20624;55.870;26.506;2022-08-30T11:35:49;2.90;;;0.65;;
34359;SDS011;20624;55.870;26.506;2022-08-30T11:52:10;0.77;;;0.52;;
34359;SDS011;20624;55.870;26.506;2022-08-30T12:11:55;0.40;;;0.20;;
34359;SDS011;20624;55.870;26.506;2022-08-30T12:17:22;1.73;;;0.50;;
34359;SDS011;20624;55.870;26.506;2022-08-30T12:26:15;1.48;;;0.73;;
34359;SDS011;20624;55.870;26.506;2022-08-30T12:29:08;0.65;;;0.43;;
34359;SDS011;20624;55.870;26.506;2022-08-30T12:31:43;1.60;;;0.60;;
34359;SDS011;20624;55.870;26.506;2022-08-30T12:34:31;2.38;;;0.90;;
34359;SDS011;20624;55.870;26.506;2022-08-30T12:37:22;1.25;;;0.73;;
34359;SDS011;20624;55.870;26.506;2022-08-30T12:42:35;1.40;;;0.90;;
34359;SDS011;20624;55.870;26.506;2022-08-30T12:45:06;0.77;;;0.50;;
34359;SDS011;20624;55.870;26.506;2022-08-30T12:47:45;0.90;;;0.57;;
34359;SDS011;20624;55.870;26.506;2022-08-30T12:50:23;0.82;;;0.40;;
34359;SDS011;20624;55.870;26.506;2022-08-30T12:53:15;0.63;;;0.43;;
34359;SDS011;20624;55.870;26.506;2022-08-30T12:55:51;0.40;;;0.20;;
34359;SDS011;20624;55.870;26.506;2022-08-30T12:58:36;2.13;;;0.60;;
34359;SDS011;20624;55.870;26.506;2022-08-30T13:01:14;0.98;;;0.60;;
34359;SDS011;20624;55.870;26.506;2022-08-30T13:06:50;1.63;;;0.88;;
34359;SDS011;20624;55.870;26.506;2022-08-30T13:09:32;1.23;;;0.65;;
34359;SDS011;20624;55.870;26.506;2022-08-30T13:12:24;0.80;;;0.32;;
34359;SDS011;20624;55.870;26.506;2022-08-30T13:14:51;2.70;;;0.60;;
34359;SDS011;20624;55.870;26.506;2022-08-30T13:17:20;1.27;;;0.88;;
34359;SDS011;20624;55.870;26.506;2022-08-30T13:20:01;1.05;;;0.57;;
34359;SDS011;20624;55.870;26.506;2022-08-30T13:22:58;1.77;;;0.90;;
34359;SDS011;20624;55.870;26.506;2022-08-30T13:25:31;0.95;;;0.50;;
34359;SDS011;20624;55.870;26.506;2022-08-30T13:27:59;0.52;;;0.35;;
34359;SDS011;20624;55.870;26.506;2022-08-30T13:30:28;1.23;;;0.65;;
34359;SDS011;20624;55.870;26.506;2022-08-30T13:32:56;4.97;;;0.80;;
34359;SDS011;20624;55.870;26.506;2022-08-30T13:35:27;0.85;;;0.50;;
34359;SDS011;20624;55.870;26.506;2022-08-30T13:37:56;1.00;;;0.32;;
34359;SDS011;20624;55.870;26.506;2022-08-30T13:40:26;0.90;;;0.52;;
34359;SDS011;20624;55.870;26.506;2022-08-30T13:42:55;2.22;;;0.85;;
34359;SDS011;20624;55.870;26.506;2022-08-30T13:45:24;0.63;;;0.40;;
34359;SDS011;20624;55.870;26.506;2022-08-30T13:48:07;0.85;;;0.47;;
34359;SDS011;20624;55.870;26.506;2022-08-30T13:50:37;0.43;;;0.35;;
34359;SDS011;20624;55.870;26.506;2022-08-30T13:53:04;0.57;;;0.35;;
34359;SDS011;20624;55.870;26.506;2022-08-30T13:55:35;0.80;;;0.47;;
34359;SDS011;20624;55.870;26.506;2022-08-30T13:58:05;0.98;;;0.60;;
34359;SDS011;20624;55.870;26.506;2022-08-30T14:00:34;0.73;;;0.45;;
34359;SDS011;20624;55.870;26.506;2022-08-30T14:03:04;0.85;;;0.40;;
34359;SDS011;20624;55.870;26.506;2022-08-30T14:05:33;1.40;;;0.32;;
34359;SDS011;20624;55.870;26.506;2022-08-30T14:08:23;1.00;;;0.50;;
34359;SDS011;20624;55.870;26.506;2022-08-30T14:11:15;0.45;;;0.32;;
34359;SDS011;20624;55.870;26.506;2022-08-30T14:13:46;1.38;;;0.57;;
34359;SDS011;20624;55.870;26.506;2022-08-30T14:16:36;2.10;;;0.43;;
34359;SDS011;20624;55.870;26.506;2022-08-30T14:19:07;1.20;;;0.35;;
34359;SDS011;20624;55.870;26.506;2022-08-30T14:21:34;1.20;;;0.60;;
34359;SDS011;20624;55.870;26.506;2022-08-30T14:24:02;0.35;;;0.20;;
34359;SDS011;20624;55.870;26.506;2022-08-30T14:29:08;1.80;;;0.85;;
34359;SDS011;20624;55.870;26.506;2022-08-30T14:31:38;0.75;;;0.30;;
34359;SDS011;20624;55.870;26.506;2022-08-30T14:34:06;0.05;;;0.03;;
34359;SDS011;20624;55.870;26.506;2022-08-30T14:36:37;0.50;;;0.20;;
34359;SDS011;20624;55.870;26.506;2022-08-30T14:39:08;0.10;;;0.10;;
34359;SDS011;20624;55.870;26.506;2022-08-30T14:41:42;0.10;;;0.08;;
34359;SDS011;20624;55.870;26.506;2022-08-30T14:44:12;2.08;;;0.50;;
34359;SDS011;20624;55.870;26.506;2022-08-30T14:46:40;0.60;;;0.32;;
34359;SDS011;20624;55.870;26.506;2022-08-30T14:49:09;0.73;;;0.73;;
34359;SDS011;20624;55.870;26.506;2022-08-30T14:51:38;0.32;;;0.22;;
34359;SDS011;20624;55.870;26.506;2022-08-30T14:54:06;0.55;;;0.32;;
34359;SDS011;20624;55.870;26.506;2022-08-30T14:56:35;0.20;;;0.10;;
34359;SDS011;20624;55.870;26.506;2022-08-30T14:59:03;0.50;;;0.17;;
34359;SDS011;20624;55.870;26.506;2022-08-30T15:04:02;0.82;;;0.40;;
34359;SDS011;20624;55.870;26.506;2022-08-30T15:06:33;0.85;;;0.45;;
34359;SDS011;20624;55.870;26.506;2022-08-30T15:09:03;0.40;;;0.30;;
34359;SDS011;20624;55.870;26.506;2022-08-30T15:11:32;1.00;;;0.45;;
34359;SDS011;20624;55.870;26.506;2022-08-30T15:14:00;1.38;;;0.57;;
34359;SDS011;20624;55.870;26.506;2022-08-30T15:16:29;1.27;;;0.43;;
34359;SDS011;20624;55.870;26.506;2022-08-30T15:18:59;0.75;;;0.40;;
34359;SDS011;20624;55.870;26.506;2022-08-30T15:21:31;0.13;;;0.10;;
34359;SDS011;20624;55.870;26.506;2022-08-30T15:24:04;0.32;;;0.22;;
34359;SDS011;20624;55.870;26.506;2022-08-30T15:26:34;1.20;;;0.50;;
34359;SDS011;20624;55.870;26.506;2022-08-30T15:29:02;0.85;;;0.40;;
34359;SDS011;20624;55.870;26.506;2022-08-30T15:31:30;1.45;;;0.30;;
34359;SDS011;20624;55.870;26.506;2022-08-30T15:33:57;0.63;;;0.35;;
34359;SDS011;20624;55.870;26.506;2022-08-30T15:36:26;0.50;;;0.50;;
34359;SDS011;20624;55.870;26.506;2022-08-30T15:41:25;0.45;;;0.32;;
34359;SDS011;20624;55.870;26.506;2022-08-30T15:43:56;0.40;;;0.30;;
34359;SDS011;20624;55.870;26.506;2022-08-30T15:46:28;0.65;;;0.40;;
34359;SDS011;20624;55.870;26.506;2022-08-30T15:48:59;1.00;;;0.50;;
34359;SDS011;20624;55.870;26.506;2022-08-30T15:51:27;1.70;;;0.50;;
34359;SDS011;20624;55.870;26.506;2022-08-30T15:54:06;0.98;;;0.50;;
34359;SDS011;20624;55.870;26.506;2022-08-30T15:56:37;0.70;;;0.38;;
34359;SDS011;20624;55.870;26.506;2022-08-30T15:59:05;0.25;;;0.25;;
34359;SDS011;20624;55.870;26.506;2022-08-30T16:01:35;0.40;;;0.30;;
34359;SDS011;20624;55.870;26.506;2022-08-30T16:04:05;0.73;;;0.35;;
34359;SDS011;20624;55.870;26.506;2022-08-30T16:06:33;0.43;;;0.30;;
34359;SDS011;20624;55.870;26.506;2022-08-30T16:09:04;0.73;;;0.40;;
34359;SDS011;20624;55.870;26.506;2022-08-30T16:11:33;0.45;;;0.28;;
34359;SDS011;20624;55.870;26.506;2022-08-30T16:14:00;0.30;;;0.20;;
34359;SDS011;20624;55.870;26.506;2022-08-30T16:16:29;0.35;;;0.20;;
34359;SDS011;20624;55.870;26.506;2022-08-30T16:18:57;0.50;;;0.30;;
34359;SDS011;20624;55.870;26.506;2022-08-30T16:21:30;0.03;;;0.03;;
34359;SDS011;20624;55.870;26.506;2022-08-30T16:24:02;0.20;;;0.00;;
34359;SDS011;20624;55.870;26.506;2022-08-30T16:26:32;0.50;;;0.20;;
34359;SDS011;20624;55.870;26.506;2022-08-30T16:29:01;0.10;;;0.10;;
34359;SDS011;20624;55.870;26.506;2022-08-30T16:31:32;1.92;;;0.20;;
34359;SDS011;20624;55.870;26.506;2022-08-30T16:34:00;0.73;;;0.20;;
34359;SDS011;20624;55.870;26.506;2022-08-30T16:36:30;0.30;;;0.20;;
34359;SDS011;20624;55.870;26.506;2022-08-30T16:38:59;0.45;;;0.30;;
34359;SDS011;20624;55.870;26.506;2022-08-30T16:41:26;0.10;;;0.03;;
34359;SDS011;20624;55.870;26.506;2022-08-30T16:43:57;0.25;;;0.15;;
34359;SDS011;20624;55.870;26.506;2022-08-30T16:46:25;0.10;;;0.00;;
34359;SDS011;20624;55.870;26.506;2022-08-30T16:48:54;0.17;;;0.10;;
34359;SDS011;20624;55.870;26.506;2022-08-30T16:51:24;0.43;;;0.15;;